Time;durP1;ratioP1;P1;durP2;ratioP2;P2;SDS_P1;SDS_P2;PMS_P1;PMS_P2;Temp;Humidity;BMP_temperature;BMP_pressure;BME280_temperature;BME280_humidity;BME280_pressure;Samples;Min_cycle;Max_cycle;Signal;HPM_P1;HPM_P2
2021/09/14 00:01:49;;;;;;;16.20;10.93;;;;;;;19.05;65.15;100387.45;1705828;82;21133;-56
2021/09/14 00:04:16;;;;;;;15.68;10.93;;;;;;;18.91;65.42;100390.40;1702205;82;21224;-57
2021/09/14 00:06:43;;;;;;;17.48;10.93;;;;;;;18.82;65.60;100388.75;1685691;83;21138;-56
2021/09/14 00:09:09;;;;;;;14.25;9.43;;;;;;;18.81;65.70;100392.92;1709176;81;21107;-57
2021/09/14 00:11:39;;;;;;;13.98;9.95;;;;;;;18.83;65.76;100390.45;1711957;82;22058;-57
2021/09/14 00:14:05;;;;;;;12.88;9.28;;;;;;;18.92;65.72;100391.22;1717716;82;21612;-57
2021/09/14 00:16:32;;;;;;;14.10;10.70;;;;;;;19.00;65.59;100393.02;1708834;82;21102;-57
2021/09/14 00:18:58;;;;;;;16.73;9.48;;;;;;;19.00;65.46;100387.67;1703982;82;21026;-56
2021/09/14 00:21:26;;;;;;;13.43;10.08;;;;;;;18.96;65.50;100392.51;1686554;82;21548;-56
2021/09/14 00:23:52;;;;;;;13.15;9.03;;;;;;;18.95;65.53;100392.20;1710394;81;21145;-56
2021/09/14 00:26:19;;;;;;;14.45;10.40;;;;;;;18.92;65.39;100390.70;1702888;82;21106;-56
2021/09/14 00:28:45;;;;;;;12.95;9.60;;;;;;;18.87;65.39;100392.25;1709748;81;21058;-57
2021/09/14 00:31:12;;;;;;;13.70;9.65;;;;;;;18.83;65.52;100392.27;1707170;81;21588;-57
2021/09/14 00:33:38;;;;;;;14.33;9.18;;;;;;;18.81;65.56;100391.58;1677989;82;21159;-57
2021/09/14 00:36:07;;;;;;;12.73;9.15;;;;;;;18.82;65.58;100390.59;1709294;82;21130;-57
2021/09/14 00:38:34;;;;;;;12.88;10.60;;;;;;;18.80;65.58;100389.43;1710229;81;21062;-57
2021/09/14 01:03:54;;;;;;;13.70;8.48;;;;;;;19.40;62.92;100389.18;1758672;79;22704;-55
2021/09/14 01:06:21;;;;;;;12.28;8.53;;;;;;;19.22;63.27;100393.48;1733750;81;21161;-55
2021/09/14 01:08:51;;;;;;;14.30;9.00;;;;;;;19.13;63.51;100398.55;1737164;80;21038;-56
2021/09/14 01:11:19;;;;;;;16.40;8.40;;;;;;;19.04;63.79;100400.97;1730528;81;21029;-56
2021/09/14 01:13:47;;;;;;;12.70;9.25;;;;;;;18.93;64.20;100400.38;1686886;82;20971;-56
2021/09/14 01:16:16;;;;;;;11.00;8.28;;;;;;;18.84;64.41;100400.59;1735015;80;20994;-55
2021/09/14 01:18:44;;;;;;;11.80;8.93;;;;;;;18.78;64.55;100403.93;1734218;81;21027;-56
2021/09/14 01:21:10;;;;;;;14.70;9.75;;;;;;;18.69;64.72;100406.67;1731568;81;21050;-56
2021/09/14 01:23:36;;;;;;;13.53;8.48;;;;;;;18.61;64.97;100408.52;1677621;83;21405;-56
2021/09/14 01:26:03;;;;;;;11.18;8.33;;;;;;;18.51;65.26;100414.09;1703723;83;21557;-56
2021/09/14 01:28:30;;;;;;;13.03;8.53;;;;;;;18.41;65.54;100411.63;1653926;84;21055;-57
2021/09/14 01:30:57;;;;;;;12.07;8.85;;;;;;;18.29;65.76;100413.84;1657080;84;21113;-56
2021/09/14 01:33:24;;;;;;;12.73;8.93;;;;;;;18.19;66.12;100412.71;1681302;83;21106;-56
2021/09/14 01:35:51;;;;;;;12.30;8.95;;;;;;;18.11;66.35;100417.23;1681135;83;21105;-56
2021/09/14 01:38:18;;;;;;;14.05;8.00;;;;;;;18.06;66.59;100418.26;1684743;84;21086;-56
2021/09/14 01:40:47;;;;;;;11.83;7.80;;;;;;;18.07;66.68;100423.41;1632580;84;21097;-55
2021/09/14 01:43:18;;;;;;;14.47;9.50;;;;;;;18.03;66.73;100413.27;1696735;83;21047;-56
2021/09/14 01:45:45;;;;;;;13.22;8.60;;;;;;;17.99;66.79;100416.27;1703631;82;21806;-56
2021/09/14 01:48:13;;;;;;;12.90;9.23;;;;;;;17.92;66.88;100414.44;1699076;83;22489;-57
2021/09/14 01:50:41;;;;;;;13.72;8.55;;;;;;;17.82;67.04;100412.78;1673274;82;21066;-56
2021/09/14 01:53:08;;;;;;;14.23;8.65;;;;;;;17.76;67.16;100413.45;1695317;83;21074;-56
2021/09/14 01:55:37;;;;;;;12.93;9.45;;;;;;;17.73;67.25;100411.13;1675535;83;21478;-56
2021/09/14 01:58:04;;;;;;;12.50;8.75;;;;;;;17.71;67.27;100408.31;1704851;82;21107;-56
2021/09/14 02:00:35;;;;;;;11.35;7.70;;;;;;;17.73;67.25;100407.64;1706472;83;21070;-56
2021/09/14 02:33:50;;;;;;;11.60;8.40;;;;;;;17.41;68.04;100424.78;1779005;79;21058;-57
2021/09/14 02:38:37;;;;;;;11.73;7.90;;;;;;;17.42;68.22;100429.63;1719997;81;21432;-56
2021/09/14 02:43:50;;;;;;;13.50;7.95;;;;;;;17.49;67.87;100433.78;1715287;81;21147;-57
2021/09/14 02:59:37;;;;;;;11.20;7.25;;;;;;;17.22;68.00;100449.88;1745307;80;21205;-56
2021/09/14 03:02:05;;;;;;;11.38;8.63;;;;;;;17.13;68.19;100455.34;1737110;81;21116;-56
2021/09/14 03:04:33;;;;;;;10.72;7.78;;;;;;;17.12;68.33;100451.86;1682518;81;21059;-58
2021/09/14 03:07:01;;;;;;;10.88;7.90;;;;;;;17.18;68.35;100449.03;1713332;81;21394;-59
2021/09/14 03:09:32;;;;;;;11.97;7.42;;;;;;;17.26;68.25;100451.23;1739183;80;21517;-55
2021/09/14 03:11:59;;;;;;;10.82;7.95;;;;;;;17.31;68.07;100457.36;1714326;81;22686;-56
2021/09/14 03:14:27;;;;;;;14.05;8.48;;;;;;;17.29;68.06;100461.20;1689756;81;21107;-55
2021/09/14 03:16:55;;;;;;;11.30;8.08;;;;;;;17.30;67.93;100464.17;1716466;81;21487;-55
2021/09/14 03:19:22;;;;;;;11.53;7.92;;;;;;;17.25;67.80;100460.19;1685796;82;21109;-55
2021/09/14 03:21:50;;;;;;;13.28;8.40;;;;;;;17.20;67.88;100465.17;1718582;81;21606;-59
2021/09/14 03:24:18;;;;;;;11.75;7.60;;;;;;;17.21;67.82;100466.00;1687668;82;21082;-60
2021/09/14 03:26:45;;;;;;;10.70;6.85;;;;;;;17.23;67.71;100472.83;1695050;82;21129;-59
2021/09/14 03:29:12;;;;;;;13.55;7.58;;;;;;;17.21;67.63;100472.64;1696968;83;21452;-60
2021/09/14 03:31:40;;;;;;;10.98;7.65;;;;;;;17.17;67.76;100470.81;1698518;82;21138;-60
2021/09/14 03:34:07;;;;;;;11.83;7.90;;;;;;;17.12;67.91;100470.48;1666847;83;22025;-61
2021/09/14 03:36:34;;;;;;;11.85;7.95;;;;;;;17.13;67.94;100473.95;1698113;83;21138;-60
2021/09/14 03:39:00;;;;;;;10.88;7.97;;;;;;;17.08;67.89;100480.61;1722986;81;22811;-58
2021/09/14 03:41:26;;;;;;;17.25;12.23;;;;;;;17.07;67.96;100480.77;1697927;82;21109;-56
2021/09/14 03:43:53;;;;;;;14.28;10.98;;;;;;;17.04;67.92;100483.24;1711991;81;21094;-60
2021/09/14 03:46:19;;;;;;;15.70;7.95;;;;;;;17.08;67.78;100487.25;1719059;81;21694;-60
2021/09/14 03:48:47;;;;;;;12.33;8.23;;;;;;;17.14;67.65;100486.27;1723151;81;21140;-60
2021/09/14 03:51:14;;;;;;;11.43;7.90;;;;;;;17.16;67.53;100485.59;1719793;81;21097;-60
2021/09/14 03:53:42;;;;;;;12.25;7.28;;;;;;;17.15;67.55;100485.28;1726333;81;21093;-61
2021/09/14 03:56:08;;;;;;;10.35;7.50;;;;;;;17.14;67.64;100490.25;1699470;81;21130;-60
2021/09/14 03:58:37;;;;;;;12.90;8.15;;;;;;;17.14;67.52;100484.94;1722163;81;21126;-60
2021/09/14 04:01:04;;;;;;;10.72;7.30;;;;;;;17.10;67.41;100485.77;1698377;82;21070;-60
2021/09/14 04:08:53;;;;;;;13.05;8.13;;;;;;;16.97;67.67;100488.88;1722508;81;21535;-61
2021/09/14 04:11:31;;;;;;;10.38;7.12;;;;;;;17.03;67.54;100487.39;1711033;81;21102;-61
2021/09/14 04:14:01;;;;;;;9.80;7.15;;;;;;;17.12;67.49;100495.73;1721669;81;21050;-61
2021/09/14 04:16:27;;;;;;;9.83;7.30;;;;;;;17.16;67.37;100497.56;1720915;81;21051;-61
2021/09/14 04:18:55;;;;;;;11.00;7.97;;;;;;;17.17;67.31;100502.72;1720088;81;21094;-61
2021/09/14 04:21:22;;;;;;;9.88;7.42;;;;;;;17.15;67.34;100503.89;1695524;82;21133;-61
2021/09/14 04:23:48;;;;;;;11.20;7.17;;;;;;;17.15;67.33;100514.53;1698666;82;21082;-61
2021/09/14 04:26:14;;;;;;;9.50;6.50;;;;;;;17.12;67.29;100515.67;1729935;80;22513;-61
2021/09/14 04:28:41;;;;;;;9.95;6.67;;;;;;;17.11;67.35;100517.16;1735428;80;21093;-60
2021/09/14 04:31:08;;;;;;;12.43;7.08;;;;;;;17.16;67.38;100519.66;1738019;80;21628;-58
2021/09/14 04:33:38;;;;;;;11.38;7.60;;;;;;;17.23;67.27;100523.83;1757141;80;21609;-56
2021/09/14 04:36:05;;;;;;;13.32;7.65;;;;;;;17.27;67.21;100527.34;1767253;79;21082;-57
2021/09/14 04:38:33;;;;;;;13.13;8.40;;;;;;;17.30;67.16;100530.19;1761931;79;21207;-57
2021/09/14 04:41:00;;;;;;;12.28;7.90;;;;;;;17.30;67.07;100527.52;1738782;80;21499;-59
2021/09/14 04:43:26;;;;;;;11.95;7.70;;;;;;;17.31;67.12;100525.69;1759963;80;21098;-59
2021/09/14 04:45:53;;;;;;;11.93;8.13;;;;;;;17.30;67.09;100531.98;1766883;79;21146;-61
2021/09/14 04:48:19;;;;;;;9.03;6.83;;;;;;;17.29;67.15;100531.67;1766574;80;21062;-60
2021/09/14 04:50:46;;;;;;;11.85;6.47;;;;;;;17.30;67.02;100535.98;1744401;80;21135;-62
2021/09/14 04:53:14;;;;;;;10.78;6.92;;;;;;;17.36;66.77;100536.66;1764339;80;21058;-60
2021/09/14 04:55:42;;;;;;;11.53;7.78;;;;;;;17.41;66.73;100529.02;1750307;79;21774;-60
2021/09/14 04:58:08;;;;;;;11.68;7.60;;;;;;;17.44;66.57;100534.02;1761653;79;21039;-59
2021/09/14 05:00:34;;;;;;;11.90;7.40;;;;;;;17.45;66.27;100539.19;1757167;79;21011;-65
2021/09/14 05:03:01;;;;;;;11.68;6.97;;;;;;;17.41;66.31;100537.83;1761348;80;21137;-61
2021/09/14 05:05:28;;;;;;;11.90;7.65;;;;;;;17.39;66.47;100531.02;1732712;80;21641;-64
2021/09/14 05:07:54;;;;;;;12.40;7.97;;;;;;;17.42;66.59;100540.02;1754300;80;21616;-61
2021/09/14 05:10:22;;;;;;;14.20;7.83;;;;;;;17.46;66.64;100545.32;1738185;79;21172;-65
2021/09/14 05:12:50;;;;;;;12.60;7.28;;;;;;;17.53;66.50;100554.30;1737567;79;21114;-63
2021/09/14 05:15:18;;;;;;;13.48;7.97;;;;;;;17.67;66.32;100551.99;1725562;81;21620;-67
2021/09/14 05:17:59;;;;;;;11.50;7.15;;;;;;;17.75;65.71;100555.52;1667714;80;20996;-66
2021/09/14 05:20:27;;;;;;;13.53;8.15;;;;;;;17.79;65.56;100563.49;1737884;80;21073;-65
2021/09/14 05:23:10;;;;;;;11.10;8.10;;;;;;;17.81;65.43;100555.34;1739574;80;21537;-61
2021/09/14 05:25:23;;;;;;;11.83;8.15;;;;;;;17.82;65.29;100559.68;1756622;79;21097;-59
2021/09/14 05:27:50;;;;;;;13.43;8.28;;;;;;;17.76;65.43;100556.34;1768297;79;21202;-59
2021/09/14 05:30:16;;;;;;;12.73;7.55;;;;;;;17.77;65.70;100563.30;1765473;79;21193;-59
2021/09/14 05:32:43;;;;;;;10.43;6.80;;;;;;;17.80;65.37;100557.19;1730230;80;21047;-59
2021/09/14 05:35:09;;;;;;;10.82;7.25;;;;;;;17.83;65.29;100558.16;1772436;79;21051;-60
2021/09/14 05:37:36;;;;;;;10.85;7.17;;;;;;;17.90;65.02;100557.02;1775049;79;21629;-59
2021/09/14 05:40:05;;;;;;;10.82;7.83;;;;;;;17.93;64.81;100561.20;1773201;79;21093;-59
2021/09/14 05:42:34;;;;;;;11.20;7.97;;;;;;;17.97;64.84;100560.70;1748766;79;21039;-59
2021/09/14 05:45:01;;;;;;;12.15;7.25;;;;;;;18.00;64.73;100564.38;1766837;79;21563;-59
2021/09/14 05:47:28;;;;;;;10.45;7.80;;;;;;;18.01;64.97;100567.34;1750203;79;21102;-58
2021/09/14 05:49:58;;;;;;;17.20;8.48;;;;;;;18.06;64.90;100559.37;1732987;79;21081;-59
2021/09/14 05:52:23;;;;;;;10.98;6.87;;;;;;;18.16;64.81;100569.35;1734092;80;21064;-59
2021/09/14 05:54:50;;;;;;;8.73;6.75;;;;;;;18.33;64.36;100566.16;1768449;80;21068;-60
2021/09/14 05:57:17;;;;;;;14.07;7.78;;;;;;;18.44;63.84;100568.95;1771977;79;21015;-60
2021/09/14 05:59:45;;;;;;;12.50;8.18;;;;;;;18.50;63.64;100565.63;1768704;79;21113;-59
2021/09/14 06:02:13;;;;;;;15.05;8.48;;;;;;;18.55;63.11;100572.09;1737762;80;21062;-58
2021/09/14 06:04:39;;;;;;;13.45;7.37;;;;;;;18.61;62.82;100566.61;1736115;80;21556;-65
2021/09/14 06:07:06;;;;;;;12.20;7.92;;;;;;;18.60;62.74;100562.27;1769678;79;21094;-63
2021/09/14 06:09:32;;;;;;;11.60;6.97;;;;;;;18.59;62.63;100567.25;1770293;79;21130;-63
2021/09/14 06:11:59;;;;;;;12.98;8.25;;;;;;;18.63;62.76;100568.59;1770303;79;21105;-66
2021/09/14 06:14:25;;;;;;;11.78;7.17;;;;;;;18.71;62.40;100572.56;1776081;79;21070;-67
2021/09/14 06:16:53;;;;;;;15.78;7.80;;;;;;;18.81;62.30;100571.05;1775365;79;21143;-66
2021/09/14 06:19:23;;;;;;;11.83;7.67;;;;;;;18.91;62.34;100573.52;1766122;79;20967;-65
2021/09/14 06:21:51;;;;;;;13.15;9.65;;;;;;;19.01;61.65;100569.31;1746760;80;21074;-66
2021/09/14 06:24:18;;;;;;;21.12;7.67;;;;;;;19.04;61.37;100568.45;1771363;79;21117;-65
2021/09/14 06:26:45;;;;;;;10.53;6.55;;;;;;;19.09;60.90;100563.94;1767776;79;21106;-67
2021/09/14 06:29:12;;;;;;;13.32;8.33;;;;;;;19.09;60.57;100555.94;1740277;79;21260;-66
2021/09/14 06:31:40;;;;;;;11.50;7.42;;;;;;;19.07;60.45;100561.45;1705522;82;21553;-67
2021/09/14 06:34:06;;;;;;;11.35;6.35;;;;;;;19.08;60.40;100562.27;1766422;79;21095;-66
2021/09/14 06:36:35;;;;;;;12.18;7.15;;;;;;;19.10;60.14;100550.95;1774997;79;21670;-67
2021/09/14 06:39:02;;;;;;;13.65;7.42;;;;;;;19.17;60.03;100555.08;1769131;79;21124;-66
2021/09/14 06:41:30;;;;;;;16.30;7.03;;;;;;;19.27;59.60;100559.69;1761876;79;23288;-65
2021/09/14 06:43:58;;;;;;;10.58;6.65;;;;;;;19.33;59.72;100556.30;1768842;79;21415;-66
2021/09/14 06:46:27;;;;;;;9.80;6.00;;;;;;;19.40;59.77;100560.43;1768101;79;21086;-65
2021/09/14 06:49:07;;;;;;;13.98;6.60;;;;;;;19.43;59.34;100554.74;1762586;79;21082;-65
2021/09/14 06:51:34;;;;;;;10.80;5.55;;;;;;;19.44;59.01;100563.91;1768723;80;21082;-66
2021/09/14 06:54:01;;;;;;;8.65;5.83;;;;;;;19.46;59.20;100568.56;1767349;79;21106;-66
2021/09/14 06:56:27;;;;;;;9.53;5.90;;;;;;;19.47;59.28;100567.56;1740864;80;21113;-64
2021/09/14 06:58:54;;;;;;;13.55;6.22;;;;;;;19.49;58.82;100567.39;1766729;79;21114;-62
2021/09/14 07:01:22;;;;;;;13.30;5.72;;;;;;;19.52;58.73;100571.53;1763993;79;21378;-65
2021/09/14 07:03:49;;;;;;;11.73;5.78;;;;;;;19.58;58.25;100575.66;1765486;79;21476;-66
2021/09/14 07:06:18;;;;;;;7.20;4.67;;;;;;;19.71;57.57;100565.73;1772117;80;21129;-65
2021/09/14 07:08:45;;;;;;;8.78;5.75;;;;;;;19.77;57.18;100574.41;1768503;80;21546;-65
2021/09/14 07:11:11;;;;;;;11.97;5.33;;;;;;;19.81;56.93;100574.36;1735687;79;21058;-65
2021/09/14 07:13:40;;;;;;;9.25;4.20;;;;;;;19.88;57.25;100579.00;1770036;79;21082;-66
2021/09/14 07:16:06;;;;;;;6.72;3.50;;;;;;;19.91;56.39;100582.13;1770542;79;21050;-65
2021/09/14 07:18:33;;;;;;;9.60;5.03;;;;;;;19.95;55.73;100581.27;1738609;80;21217;-65
2021/09/14 07:20:59;;;;;;;8.55;5.20;;;;;;;19.97;55.81;100581.43;1738938;79;21090;-66
2021/09/14 07:23:26;;;;;;;9.20;4.97;;;;;;;20.00;56.33;100579.70;1745622;79;22179;-67
2021/09/14 07:25:52;;;;;;;10.45;5.03;;;;;;;20.05;56.92;100577.84;1704985;82;21867;-68
2021/09/14 07:28:19;;;;;;;10.95;5.28;;;;;;;20.08;57.03;100580.67;1716320;81;21120;-65
2021/09/14 07:30:45;;;;;;;8.60;4.62;;;;;;;20.12;57.37;100580.62;1730445;81;22126;-65
2021/09/14 07:33:12;;;;;;;7.12;3.80;;;;;;;20.18;56.88;100582.06;1732723;80;21059;-66
2021/09/14 07:35:39;;;;;;;6.53;3.60;;;;;;;20.30;56.67;100581.63;1694492;82;21110;-66
2021/09/14 07:38:06;;;;;;;7.95;4.55;;;;;;;20.38;56.19;100578.37;1734120;80;21113;-67
2021/09/14 07:40:32;;;;;;;6.92;3.80;;;;;;;20.44;56.03;100576.80;1730002;80;21354;-67
2021/09/14 07:42:58;;;;;;;11.73;3.98;;;;;;;20.51;55.74;100577.75;1728754;81;21210;-68
2021/09/14 07:45:25;;;;;;;8.80;6.03;;;;;;;20.55;55.50;100580.88;1701890;82;21069;-67
2021/09/14 07:47:53;;;;;;;7.90;5.37;;;;;;;20.62;55.16;100577.78;1703084;82;21506;-67
2021/09/14 07:50:21;;;;;;;9.10;4.28;;;;;;;20.68;54.58;100574.42;1727951;82;21012;-68
2021/09/14 07:52:49;;;;;;;9.88;4.95;;;;;;;20.74;53.94;100576.84;1733051;80;21079;-67
2021/09/14 07:55:15;;;;;;;6.70;3.60;;;;;;;20.78;54.16;100579.49;1702972;82;21168;-67
2021/09/14 07:57:42;;;;;;;10.48;4.30;;;;;;;20.84;52.48;100568.55;1729787;80;21109;-66
2021/09/14 08:00:10;;;;;;;7.50;3.47;;;;;;;20.86;52.72;100571.86;1733732;81;21506;-67
2021/09/14 08:02:39;;;;;;;7.22;3.67;;;;;;;20.91;52.52;100565.45;1703075;81;21142;-67
2021/09/14 08:05:08;;;;;;;8.13;2.77;;;;;;;20.96;52.46;100567.91;1728719;80;21047;-67
2021/09/14 08:07:34;;;;;;;7.78;3.05;;;;;;;21.02;51.53;100569.51;1705624;80;21043;-66
2021/09/14 08:10:00;;;;;;;7.65;3.05;;;;;;;21.06;50.76;100574.80;1698525;83;21581;-67
2021/09/14 08:12:27;;;;;;;7.70;3.10;;;;;;;21.06;50.42;100566.77;1700353;82;21137;-67
2021/09/14 08:14:55;;;;;;;11.45;3.70;;;;;;;21.07;50.54;100563.09;1700917;82;21570;-67
2021/09/14 08:17:23;;;;;;;8.23;3.60;;;;;;;21.11;50.55;100565.69;1699753;82;21565;-65
2021/09/14 08:19:49;;;;;;;5.87;3.08;;;;;;;21.14;50.38;100564.80;1700466;82;21308;-66
2021/09/14 08:22:17;;;;;;;5.78;3.00;;;;;;;21.19;50.90;100562.91;1701666;82;21665;-66
2021/09/14 08:24:44;;;;;;;7.08;3.58;;;;;;;21.27;50.42;100560.13;1695759;82;21161;-67
2021/09/14 08:27:10;;;;;;;6.95;3.90;;;;;;;21.32;49.78;100557.71;1684535;82;21643;-67
2021/09/14 08:29:37;;;;;;;9.85;3.75;;;;;;;21.36;50.03;100560.02;1724961;81;21117;-65
2021/09/14 08:32:07;;;;;;;8.73;4.22;;;;;;;21.40;50.63;100561.28;1661512;84;21196;-67
2021/09/14 08:34:35;;;;;;;6.60;3.90;;;;;;;21.46;50.54;100561.35;1672567;83;21212;-65
2021/09/14 08:37:02;;;;;;;7.67;4.15;;;;;;;21.54;49.89;100567.66;1723687;81;21090;-69
2021/09/14 08:39:29;;;;;;;8.20;4.70;;;;;;;21.58;49.58;100559.03;1731101;80;21564;-66
2021/09/14 08:41:56;;;;;;;8.63;4.15;;;;;;;21.62;49.55;100560.33;1709629;80;21130;-66
2021/09/14 08:44:24;;;;;;;6.87;3.40;;;;;;;21.63;49.19;100562.48;1740021;80;21051;-67
2021/09/14 08:46:51;;;;;;;7.62;3.77;;;;;;;21.64;48.21;100559.61;1678669;82;21094;-66
2021/09/14 08:49:17;;;;;;;7.83;3.98;;;;;;;21.67;48.74;100556.56;1740821;80;21170;-67
2021/09/14 08:51:44;;;;;;;8.45;4.33;;;;;;;21.74;48.53;100553.09;1715687;82;21027;-69
2021/09/14 08:54:11;;;;;;;7.75;3.35;;;;;;;21.80;48.06;100552.33;1701267;82;21119;-64
2021/09/14 08:56:37;;;;;;;7.03;3.62;;;;;;;21.84;48.09;100564.34;1743074;80;21105;-67
2021/09/14 08:59:04;;;;;;;7.42;3.30;;;;;;;21.87;47.53;100553.21;1705854;82;21618;-64
2021/09/14 09:01:31;;;;;;;6.58;3.20;;;;;;;21.91;47.27;100550.48;1744547;80;21730;-68
2021/09/14 09:04:00;;;;;;;7.35;3.05;;;;;;;21.98;46.97;100550.02;1715609;80;21118;-66
2021/09/14 09:06:34;;;;;;;5.92;3.02;;;;;;;22.07;46.52;100558.73;1744350;80;21103;-65
2021/09/14 09:09:17;;;;;;;5.67;2.83;;;;;;;22.13;46.02;100550.45;1707073;82;22264;-64
2021/09/14 09:12:03;;;;;;;8.38;4.12;;;;;;;22.19;45.54;100552.33;1682587;83;21135;-62
2021/09/14 09:14:39;;;;;;;6.53;2.70;;;;;;;22.23;44.62;100549.59;1712585;82;20996;-64
2021/09/14 09:17:14;;;;;;;5.35;2.40;;;;;;;22.25;43.93;100541.66;1705182;82;21567;-65
2021/09/14 09:19:44;;;;;;;4.37;2.20;;;;;;;22.28;44.02;100548.53;1743615;80;22818;-67
2021/09/14 09:22:12;;;;;;;5.28;2.65;;;;;;;22.32;44.76;100551.12;1715145;80;22264;-66
2021/09/14 09:24:48;;;;;;;7.12;3.37;;;;;;;22.39;45.71;100549.33;1742709;80;21479;-65
2021/09/14 09:27:16;;;;;;;6.90;2.85;;;;;;;22.45;45.08;100551.20;1744374;80;21090;-68
2021/09/14 09:29:44;;;;;;;5.65;2.95;;;;;;;22.49;44.32;100546.27;1765680;79;21063;-66
2021/09/14 09:32:11;;;;;;;4.53;2.33;;;;;;;22.52;44.82;100549.91;1766537;79;21112;-68
2021/09/14 09:34:37;;;;;;;5.65;2.60;;;;;;;22.58;44.09;100546.96;1764330;80;21114;-66
2021/09/14 09:37:09;;;;;;;5.28;2.60;;;;;;;22.66;44.29;100538.73;1762137;79;21674;-66
2021/09/14 09:39:47;;;;;;;5.37;2.58;;;;;;;22.72;44.33;100534.44;1766722;80;21078;-66
2021/09/14 09:42:15;;;;;;;5.45;2.72;;;;;;;22.76;44.68;100539.22;1767071;79;21062;-65
2021/09/14 09:44:54;;;;;;;8.78;2.90;;;;;;;22.78;44.78;100537.16;1766506;79;21113;-65
2021/09/14 09:47:21;;;;;;;12.78;6.10;;;;;;;22.80;43.79;100536.44;1763972;79;21124;-67
2021/09/14 09:49:48;;;;;;;9.93;5.10;;;;;;;22.79;44.57;100537.98;1759568;80;21561;-69
2021/09/14 09:52:15;;;;;;;6.33;3.20;;;;;;;22.82;44.32;100536.23;1762240;79;21114;-64
2021/09/14 09:54:42;;;;;;;5.45;2.70;;;;;;;22.89;43.86;100535.75;1765502;79;21109;-64
2021/09/14 09:57:09;;;;;;;5.80;3.58;;;;;;;22.95;43.99;100528.25;1741367;80;21580;-61
2021/09/14 09:59:36;;;;;;;5.80;2.77;;;;;;;22.98;43.10;100530.53;1768347;80;21173;-66
2021/09/14 10:02:24;;;;;;;6.92;2.70;;;;;;;22.99;42.94;100532.17;1765061;79;21078;-63
2021/09/14 10:05:04;;;;;;;7.67;2.72;;;;;;;23.00;43.00;100524.97;1764220;79;21652;-65
2021/09/14 10:07:32;;;;;;;6.12;2.50;;;;;;;23.01;42.86;100536.00;1734796;80;21197;-66
2021/09/14 10:10:00;;;;;;;6.42;2.62;;;;;;;23.03;43.07;100533.94;1765692;79;21125;-68
2021/09/14 10:12:32;;;;;;;5.60;2.58;;;;;;;23.07;42.85;100537.09;1765912;79;21124;-68
2021/09/14 10:15:07;;;;;;;18.27;10.45;;;;;;;23.14;43.29;100529.89;1768659;80;21003;-65
2021/09/14 10:17:51;;;;;;;6.15;2.85;;;;;;;23.23;42.88;100532.69;1738945;79;21097;-71
2021/09/14 10:20:21;;;;;;;5.13;2.80;;;;;;;23.31;43.19;100534.37;1733088;80;21133;-63
2021/09/14 10:23:01;;;;;;;7.25;4.25;;;;;;;23.43;42.14;100533.25;1739076;80;21728;-66
2021/09/14 10:25:28;;;;;;;6.33;2.27;;;;;;;23.49;41.95;100544.01;1766689;79;21115;-66
2021/09/14 10:28:11;;;;;;;6.75;2.87;;;;;;;23.54;42.19;100543.41;1762590;79;21597;-65
2021/09/14 10:30:37;;;;;;;7.05;2.85;;;;;;;23.62;42.16;100539.19;1757678;80;21089;-62
2021/09/14 10:33:05;;;;;;;5.20;2.30;;;;;;;23.70;41.97;100534.11;1763605;79;21066;-66
2021/09/14 10:35:34;;;;;;;6.37;2.47;;;;;;;23.71;41.22;100533.09;1761624;79;21101;-65
2021/09/14 10:38:10;;;;;;;5.90;2.67;;;;;;;23.69;42.14;100540.53;1741219;80;21063;-67
2021/09/14 10:40:53;;;;;;;8.60;3.05;;;;;;;23.67;42.44;100537.20;1760496;79;21528;-65
2021/09/14 10:43:26;;;;;;;4.87;2.42;;;;;;;23.65;41.93;100530.69;1761398;80;21090;-66
2021/09/14 10:45:52;;;;;;;6.90;2.47;;;;;;;23.59;42.21;100540.08;1758270;79;21133;-63
2021/09/14 10:48:24;;;;;;;4.33;2.45;;;;;;;23.48;42.16;100531.59;1756932;79;21133;-67
2021/09/14 10:50:53;;;;;;;6.45;2.75;;;;;;;23.42;42.28;100539.15;1745516;80;21084;-66
2021/09/14 10:53:25;;;;;;;6.80;3.05;;;;;;;23.37;42.56;100540.28;1759209;80;21137;-66
2021/09/14 10:55:58;;;;;;;5.33;2.60;;;;;;;23.34;42.43;100540.16;1740030;80;21039;-66
2021/09/14 10:58:26;;;;;;;5.33;2.75;;;;;;;23.35;42.62;100542.31;1757062;79;21099;-66
2021/09/14 11:00:53;;;;;;;5.45;2.72;;;;;;;23.41;42.09;100536.67;1754089;79;21082;-65
2021/09/14 11:03:20;;;;;;;5.53;2.60;;;;;;;23.48;41.96;100541.52;1760545;79;21145;-63
2021/09/14 11:05:53;;;;;;;5.20;2.83;;;;;;;23.54;42.06;100543.41;1743414;80;21027;-64
2021/09/14 11:08:26;;;;;;;6.22;2.50;;;;;;;23.60;42.08;100538.53;1765690;79;21099;-64
2021/09/14 11:11:00;;;;;;;6.15;2.70;;;;;;;23.73;41.76;100534.52;1762359;79;21093;-64
2021/09/14 11:13:31;;;;;;;7.45;2.60;;;;;;;23.87;40.87;100524.66;1761963;79;21460;-65
2021/09/14 11:16:05;;;;;;;5.25;2.67;;;;;;;23.97;40.71;100534.14;1755344;79;21074;-65
2021/09/14 11:18:34;;;;;;;9.55;2.17;;;;;;;23.96;40.31;100521.23;1764140;79;21047;-64
2021/09/14 11:21:10;;;;;;;8.40;3.33;;;;;;;23.95;40.71;100525.47;1763019;80;21553;-64
2021/09/14 11:23:40;;;;;;;5.78;2.37;;;;;;;24.00;41.08;100527.83;1761985;80;21019;-66
2021/09/14 11:26:11;;;;;;;11.48;3.17;;;;;;;24.06;39.70;100528.88;1733840;79;21128;-64
2021/09/14 11:28:39;;;;;;;10.90;3.65;;;;;;;24.05;40.39;100524.53;1764024;80;21110;-64
2021/09/14 11:31:14;;;;;;;6.75;3.12;;;;;;;24.11;40.20;100524.52;1766924;79;21043;-66
2021/09/14 11:33:42;;;;;;;9.45;3.22;;;;;;;24.16;39.84;100523.05;1759338;79;21106;-64
2021/09/14 11:36:08;;;;;;;6.60;2.50;;;;;;;24.22;39.94;100530.30;1763256;80;21095;-62
2021/09/14 11:38:37;;;;;;;5.53;2.98;;;;;;;24.30;40.20;100526.05;1743521;80;21118;-60
2021/09/14 11:41:10;;;;;;;12.45;3.05;;;;;;;24.41;40.37;100527.25;1754688;80;21535;-63
2021/09/14 11:43:42;;;;;;;5.70;2.70;;;;;;;24.39;39.41;100511.32;1742951;80;21675;-66
2021/09/14 11:46:22;;;;;;;9.25;3.62;;;;;;;24.27;39.67;100523.24;1765649;79;21082;-65
2021/09/14 11:48:59;;;;;;;5.65;2.58;;;;;;;24.19;39.23;100525.33;1761891;79;21098;-67
2021/09/14 11:51:28;;;;;;;5.78;3.40;;;;;;;24.14;39.29;100522.45;1739868;80;21557;-64
2021/09/14 11:53:54;;;;;;;5.80;3.10;;;;;;;24.12;39.80;100511.91;1735086;80;21094;-65
2021/09/14 11:56:27;;;;;;;11.48;3.33;;;;;;;24.14;40.57;100517.91;1767117;80;21078;-66
2021/09/14 11:58:55;;;;;;;5.85;2.67;;;;;;;24.18;40.29;100525.05;1762297;80;21118;-67
2021/09/14 12:01:25;;;;;;;7.22;2.52;;;;;;;24.22;40.59;100524.39;1761358;79;21100;-65
2021/09/14 12:03:57;;;;;;;5.22;2.30;;;;;;;24.32;39.47;100523.15;1758939;80;21123;-66
2021/09/14 12:06:32;;;;;;;7.10;2.92;;;;;;;24.41;39.27;100511.96;1763286;79;21113;-66
2021/09/14 12:09:02;;;;;;;5.27;2.63;;;;;;;24.54;39.33;100511.08;1764874;80;21098;-67
2021/09/14 12:11:31;;;;;;;6.72;2.75;;;;;;;24.61;39.20;100506.55;1760541;79;21090;-69
2021/09/14 12:14:04;;;;;;;11.80;3.50;;;;;;;24.68;38.75;100500.30;1759493;80;21645;-67
2021/09/14 12:16:37;;;;;;;5.20;2.87;;;;;;;24.70;38.40;100503.10;1762656;80;21050;-69
2021/09/14 12:19:03;;;;;;;6.22;2.85;;;;;;;24.73;38.08;100504.52;1755801;79;21539;-70
2021/09/14 12:21:30;;;;;;;6.37;2.95;;;;;;;24.72;38.33;100505.58;1758579;80;21793;-67
2021/09/14 12:23:57;;;;;;;5.45;2.58;;;;;;;24.76;38.16;100502.75;1761819;80;21526;-68
2021/09/14 12:26:37;;;;;;;6.42;3.12;;;;;;;24.87;38.32;100501.27;1761275;79;21055;-70
2021/09/14 12:29:01;;;;;;;6.45;3.02;;;;;;;24.98;38.39;100502.77;1759348;79;21090;-70
2021/09/14 12:31:29;;;;;;;6.08;2.60;;;;;;;25.15;38.01;100498.20;1757501;79;21088;-68
2021/09/14 12:33:56;;;;;;;5.60;2.22;;;;;;;25.29;37.67;100506.55;1754565;79;21130;-71
2021/09/14 12:36:22;;;;;;;6.50;2.98;;;;;;;25.33;37.41;100505.05;1757651;79;21121;-70
2021/09/14 12:38:50;;;;;;;5.22;2.77;;;;;;;25.31;37.38;100498.25;1762809;79;21099;-69
2021/09/14 12:41:17;;;;;;;5.95;2.47;;;;;;;25.27;37.05;100506.44;1760546;80;21082;-66
2021/09/14 12:43:44;;;;;;;6.15;2.75;;;;;;;25.20;36.34;100509.14;1760798;80;21156;-68
2021/09/14 12:46:10;;;;;;;5.30;2.15;;;;;;;25.09;36.65;100519.28;1764260;80;21521;-74